createdAt,value
2019-05-02T00:01:18.473Z,76.20
2019-05-02T00:03:51.515Z,76.30
2019-05-02T00:06:24.640Z,76.30
2019-05-02T00:08:57.921Z,76.30
2019-05-02T00:11:31.223Z,76.00
2019-05-02T00:14:05.393Z,75.80
2019-05-02T00:16:38.239Z,75.60
2019-05-02T00:19:14.092Z,75.20
2019-05-02T00:21:45.772Z,75.00
2019-05-02T00:24:18.600Z,74.80
2019-05-02T00:26:51.467Z,74.10
2019-05-02T00:29:25.060Z,73.70
2019-05-02T00:31:59.062Z,73.80
2019-05-02T00:34:32.122Z,74.00
2019-05-02T00:37:05.099Z,73.70
2019-05-02T00:39:38.065Z,75.00
2019-05-02T00:42:12.879Z,73.60
2019-05-02T00:44:46.851Z,73.00
2019-05-02T00:47:28.746Z,72.70
2019-05-02T00:50:01.565Z,72.70
2019-05-02T00:52:36.631Z,72.90
2019-05-02T00:55:09.125Z,73.30
2019-05-02T00:57:41.964Z,73.20
2019-05-02T01:00:18.432Z,72.10
2019-05-02T01:02:55.545Z,72.50
2019-05-02T01:05:28.364Z,71.90
2019-05-02T01:08:02.870Z,72.90
2019-05-02T01:10:35.974Z,72.20
2019-05-02T01:13:08.768Z,72.40
2019-05-02T01:15:44.157Z,73.00
2019-05-02T01:18:16.307Z,73.60
2019-05-02T01:20:49.162Z,73.40
2019-05-02T01:23:23.059Z,73.30
2019-05-02T01:25:56.083Z,72.90
2019-05-02T01:28:49.248Z,72.90
2019-05-02T01:31:30.162Z,73.60
2019-05-02T01:34:13.120Z,73.50
2019-05-02T01:36:51.306Z,73.80
2019-05-02T01:39:24.269Z,74.50
2019-05-02T01:41:59.981Z,74.50
2019-05-02T01:44:36.319Z,75.10
2019-05-02T01:47:06.577Z,75.60
2019-05-02T01:49:39.437Z,76.00
2019-05-02T01:52:12.235Z,76.30
2019-05-02T01:54:45.744Z,76.40
2019-05-02T01:57:19.810Z,76.50
2019-05-02T01:59:52.635Z,76.60
2019-05-02T02:02:28.008Z,76.90
2019-05-02T02:05:00.241Z,77.20
2019-05-02T02:07:33.157Z,76.80
2019-05-02T02:10:07.480Z,76.90
2019-05-02T02:12:41.245Z,76.80
2019-05-02T02:15:15.074Z,77.00
2019-05-02T02:17:51.477Z,77.00
2019-05-02T02:20:24.788Z,76.70
2019-05-02T02:23:19.836Z,76.50
2019-05-02T02:25:56.479Z,76.40
2019-05-02T02:28:32.072Z,76.40
2019-05-02T02:31:05.209Z,76.40
2019-05-02T02:33:41.108Z,76.10
2019-05-02T02:36:13.571Z,76.50
2019-05-02T02:38:46.352Z,76.50
2019-05-02T02:41:19.424Z,76.70
2019-05-02T02:44:11.306Z,76.80
2019-05-02T02:46:44.880Z,76.70
2019-05-02T02:49:21.402Z,76.70
2019-05-02T02:51:57.997Z,76.40
2019-05-02T02:54:27.274Z,76.30
2019-05-02T02:57:00.123Z,76.50
2019-05-02T02:59:32.976Z,76.80
2019-05-02T03:02:10.123Z,77.10
2019-05-02T03:04:43.951Z,76.90
2019-05-02T03:07:25.369Z,77.10
2019-05-02T03:09:51.767Z,77.20
2019-05-02T03:12:43.184Z,77.10
2019-05-02T03:15:21.212Z,77.00
2019-05-02T03:17:52.779Z,76.80
2019-05-02T03:20:25.600Z,77.00
2019-05-02T03:22:58.418Z,76.90
2019-05-02T03:25:50.139Z,76.70
2019-05-02T03:28:17.948Z,77.00
2019-05-02T03:30:40.721Z,76.80
2019-05-02T03:33:13.583Z,76.70
2019-05-02T03:35:49.048Z,76.30
2019-05-02T03:38:31.381Z,77.00
2019-05-02T03:40:55.925Z,76.10
2019-05-02T03:43:28.817Z,75.90
2019-05-02T03:46:01.644Z,75.30
2019-05-02T03:48:34.458Z,74.20
2019-05-02T03:51:19.231Z,73.90
2019-05-02T03:53:42.105Z,73.40
2019-05-02T03:56:14.995Z,73.20
2019-05-02T03:58:56.000Z,72.60
2019-05-02T04:01:24.734Z,72.20
2019-05-02T04:03:57.666Z,72.50
2019-05-02T04:06:31.027Z,72.70
2019-05-02T04:09:06.856Z,73.20
2019-05-02T04:11:40.990Z,73.00
2019-05-02T04:14:16.001Z,72.80
2019-05-02T04:16:55.154Z,72.50
2019-05-02T04:19:28.518Z,72.70
2019-05-02T04:22:01.656Z,72.90
2019-05-02T04:24:35.809Z,74.10
2019-05-02T04:27:09.129Z,75.50
2019-05-02T04:29:42.115Z,76.30
2019-05-02T04:32:14.953Z,76.50
2019-05-02T04:34:54.357Z,76.60
2019-05-02T04:37:22.564Z,77.80
2019-05-02T04:39:59.089Z,77.00
2019-05-02T04:42:30.098Z,76.90
2019-05-02T04:45:20.154Z,77.00
2019-05-02T04:47:39.027Z,77.30
2019-05-02T04:50:18.064Z,76.80
2019-05-02T04:52:53.609Z,76.70
2019-05-02T04:55:29.162Z,76.80
2019-05-02T04:58:01.460Z,76.70
2019-05-02T05:00:31.922Z,76.70
2019-05-02T05:03:07.264Z,76.30
2019-05-02T05:05:40.308Z,76.30
2019-05-02T05:08:17.584Z,75.90
2019-05-02T05:10:48.098Z,74.10
2019-05-02T05:13:23.287Z,72.20
2019-05-02T05:15:57.373Z,71.50
2019-05-02T05:18:30.326Z,69.90
2019-05-02T05:21:03.200Z,68.20
2019-05-02T05:24:08.099Z,67.20
2019-05-02T05:26:44.944Z,66.30
2019-05-02T05:29:19.394Z,67.30
2019-05-02T05:31:55.165Z,68.20
2019-05-02T05:34:28.508Z,69.30
2019-05-02T05:37:03.657Z,69.70
2019-05-02T05:39:38.154Z,69.10
2019-05-02T05:42:11.091Z,67.50
2019-05-02T05:44:43.922Z,65.50
2019-05-02T05:47:21.019Z,64.10
2019-05-02T05:49:52.287Z,63.30
2019-05-02T05:52:27.170Z,63.20
2019-05-02T05:55:00.161Z,61.30
2019-05-02T05:57:33.009Z,58.70
2019-05-02T06:00:11.927Z,57.50
2019-05-02T06:02:52.926Z,56.20
2019-05-02T06:05:17.582Z,55.30
2019-05-02T06:07:50.736Z,55.70
2019-05-02T06:10:23.574Z,55.20
2019-05-02T06:12:56.549Z,55.20
2019-05-02T06:15:29.358Z,55.80
2019-05-02T06:18:04.738Z,54.70
2019-05-02T06:20:37.533Z,54.80
2019-05-02T06:23:10.385Z,54.70
2019-05-02T06:25:43.210Z,59.60
2019-05-02T06:28:16.195Z,58.40
2019-05-02T06:30:49.026Z,58.90
2019-05-02T06:33:25.891Z,58.60
2019-05-02T06:36:01.015Z,55.20
2019-05-02T06:38:32.393Z,55.40
2019-05-02T06:41:05.239Z,55.50
2019-05-02T06:43:41.146Z,54.80
2019-05-02T06:46:16.237Z,58.30
2019-05-02T06:48:48.206Z,59.00
2019-05-02T06:51:22.474Z,60.10
2019-05-02T06:53:55.304Z,61.40
2019-05-02T06:56:29.229Z,61.90
2019-05-02T06:59:03.304Z,60.10
2019-05-02T07:01:36.120Z,57.30
2019-05-02T07:04:09.053Z,55.30
2019-05-02T07:06:57.762Z,54.80
2019-05-02T07:09:16.570Z,58.70
2019-05-02T07:11:57.110Z,58.40
2019-05-02T07:14:25.618Z,58.60
2019-05-02T07:17:15.688Z,59.20
2019-05-02T07:19:52.230Z,60.00
2019-05-02T07:22:25.049Z,60.30
2019-05-02T07:25:01.790Z,59.70
2019-05-02T07:27:33.652Z,58.40
2019-05-02T07:30:09.549Z,53.90
2019-05-02T07:32:42.417Z,53.10
2019-05-02T07:35:19.229Z,51.80
2019-05-02T07:37:50.252Z,52.70
2019-05-02T07:40:23.101Z,55.20
2019-05-02T07:42:55.949Z,51.40
2019-05-02T07:45:28.719Z,49.60
2019-05-02T07:48:01.780Z,51.70
2019-05-02T07:50:34.638Z,51.50
2019-05-02T07:53:09.650Z,49.20
2019-05-02T07:55:42.739Z,50.40
2019-05-02T07:58:15.697Z,52.60
2019-05-02T08:00:48.659Z,52.10
2019-05-02T08:03:22.587Z,53.90
2019-05-02T08:05:58.570Z,52.90
2019-05-02T08:08:31.872Z,51.50
2019-05-02T08:11:05.124Z,51.50
2019-05-02T08:13:37.940Z,52.60
2019-05-02T08:16:10.795Z,52.80
2019-05-02T08:18:43.731Z,50.20
2019-05-02T08:21:16.986Z,48.90
2019-05-02T08:23:49.811Z,51.40
2019-05-02T08:26:23.512Z,50.00
2019-05-02T08:29:00.426Z,50.40
2019-05-02T08:31:33.245Z,47.40
2019-05-02T08:34:14.642Z,51.30
2019-05-02T08:36:41.354Z,47.50
2019-05-02T08:39:14.590Z,47.30
2019-05-02T08:41:51.179Z,45.00
2019-05-02T08:44:22.279Z,46.20
2019-05-02T08:46:55.424Z,45.90
2019-05-02T08:49:28.295Z,45.20
2019-05-02T08:52:01.229Z,46.70
2019-05-02T08:54:34.134Z,47.00
2019-05-02T08:57:06.975Z,46.30
2019-05-02T08:59:40.933Z,47.20
2019-05-02T09:02:13.752Z,45.20
2019-05-02T09:04:57.976Z,47.30
2019-05-02T09:07:21.240Z,47.20
2019-05-02T09:09:55.610Z,44.90
2019-05-02T09:12:28.431Z,44.90
2019-05-02T09:15:02.738Z,46.10
2019-05-02T09:17:38.740Z,45.10
2019-05-02T09:20:16.620Z,46.40
2019-05-02T09:22:52.282Z,47.50
2019-05-02T09:25:22.953Z,46.00
2019-05-02T09:27:55.597Z,46.00
2019-05-02T09:30:28.348Z,45.50
2019-05-02T09:33:04.941Z,45.20
2019-05-02T09:35:35.713Z,49.00
2019-05-02T09:38:08.727Z,46.20
2019-05-02T09:40:42.763Z,46.30
2019-05-02T09:43:15.469Z,46.40
2019-05-02T09:45:48.332Z,44.80
2019-05-02T09:48:22.708Z,48.30
2019-05-02T09:50:57.868Z,47.20
2019-05-02T09:53:32.371Z,44.60
2019-05-02T09:56:05.500Z,46.00
2019-05-02T09:58:38.330Z,46.30
2019-05-02T10:01:46.192Z,47.80
2019-05-02T10:04:19.129Z,48.10
2019-05-02T10:06:52.598Z,48.40
2019-05-02T10:09:27.208Z,45.20
2019-05-02T10:12:02.034Z,45.00
2019-05-02T10:14:34.976Z,44.70
2019-05-02T10:17:07.892Z,45.20
2019-05-02T10:19:48.871Z,42.40
2019-05-02T10:22:15.983Z,42.60
2019-05-02T10:24:48.814Z,41.70
2019-05-02T10:27:21.889Z,42.70
2019-05-02T10:29:57.156Z,43.20
2019-05-02T10:32:29.457Z,40.80
2019-05-02T10:35:02.272Z,39.30
2019-05-02T10:37:38.331Z,39.40
2019-05-02T10:40:13.434Z,40.90
2019-05-02T10:42:46.344Z,40.10
2019-05-02T10:45:19.369Z,39.70
2019-05-02T10:47:52.768Z,39.40
2019-05-02T10:50:32.739Z,40.20
2019-05-02T10:53:11.927Z,39.70
2019-05-02T10:55:42.555Z,39.60
2019-05-02T10:58:15.496Z,40.00
2019-05-02T11:00:48.333Z,38.90
2019-05-02T11:03:37.900Z,38.50
2019-05-02T11:06:08.284Z,38.90
2019-05-02T11:08:45.707Z,38.70
2019-05-02T11:11:16.014Z,38.50
2019-05-02T11:14:05.746Z,39.50
2019-05-02T11:16:48.078Z,38.40
2019-05-02T11:19:25.977Z,37.90
2019-05-02T11:22:00.099Z,38.30
2019-05-02T11:24:34.058Z,38.20
2019-05-02T11:27:08.764Z,38.50
2019-05-02T11:29:42.502Z,38.60
2019-05-02T11:32:15.438Z,37.90
2019-05-02T11:34:48.294Z,38.10
2019-05-02T11:37:22.618Z,38.90
2019-05-02T11:40:00.259Z,39.20
2019-05-02T11:42:32.249Z,40.00
2019-05-02T11:45:05.700Z,39.60
2019-05-02T11:47:38.553Z,39.60
2019-05-02T11:50:11.968Z,40.90
2019-05-02T11:52:44.906Z,39.30
2019-05-02T11:55:18.986Z,38.20
2019-05-02T11:57:52.530Z,39.50
2019-05-02T12:00:25.383Z,38.90
2019-05-02T12:03:36.892Z,38.20
2019-05-02T12:06:12.710Z,38.90
2019-05-02T12:08:45.031Z,39.90
2019-05-02T12:11:17.999Z,38.50
2019-05-02T12:13:54.873Z,37.60
2019-05-02T12:16:25.684Z,37.70
2019-05-02T12:19:09.499Z,36.20
2019-05-02T12:21:35.188Z,36.20
2019-05-02T12:24:08.176Z,36.30
2019-05-02T12:26:41.950Z,36.40
2019-05-02T12:29:14.983Z,35.90
2019-05-02T12:31:54.715Z,35.60
2019-05-02T12:34:22.546Z,35.10
2019-05-02T12:36:55.379Z,35.20
2019-05-02T12:39:28.336Z,33.90
2019-05-02T12:42:03.127Z,33.70
2019-05-02T12:44:35.959Z,35.00
2019-05-02T12:47:08.995Z,36.10
2019-05-02T12:49:42.460Z,35.80
2019-05-02T12:52:15.619Z,38.00
2019-05-02T12:54:48.518Z,37.70
2019-05-02T12:57:21.968Z,37.80
2019-05-02T12:59:55.132Z,37.90
2019-05-02T13:02:35.531Z,36.90
2019-05-02T13:05:08.466Z,35.80
2019-05-02T13:07:42.777Z,36.40
2019-05-02T13:10:25.154Z,37.70
2019-05-02T13:12:57.989Z,36.40
2019-05-02T13:15:32.856Z,36.90
2019-05-02T13:18:06.040Z,36.70
2019-05-02T13:20:41.671Z,36.80
2019-05-02T13:23:35.942Z,36.10
2019-05-02T13:26:18.254Z,36.50
2019-05-02T13:28:45.072Z,37.20
2019-05-02T13:31:25.816Z,36.50
2019-05-02T13:34:13.302Z,35.80
2019-05-02T13:36:45.668Z,35.70
2019-05-02T13:39:25.582Z,37.30
2019-05-02T13:41:58.435Z,35.30
2019-05-02T13:44:34.705Z,34.30
2019-05-02T13:47:09.130Z,35.50
2019-05-02T13:49:53.216Z,36.00
2019-05-02T13:52:16.827Z,34.50
2019-05-02T13:54:52.270Z,36.70
2019-05-02T13:57:25.224Z,35.40
2019-05-02T13:59:58.066Z,34.30
2019-05-02T14:02:37.789Z,35.70
2019-05-02T14:05:12.858Z,37.60
2019-05-02T14:07:54.002Z,36.40
2019-05-02T14:10:32.189Z,41.10
2019-05-02T14:13:04.552Z,38.80
2019-05-02T14:15:38.744Z,42.20
2019-05-02T14:18:12.459Z,41.20
2019-05-02T14:20:45.515Z,41.00
2019-05-02T14:23:18.369Z,42.60
2019-05-02T14:25:52.077Z,41.60
2019-05-02T14:28:26.791Z,43.60
2019-05-02T14:31:02.046Z,39.10
2019-05-02T14:33:36.532Z,41.70
2019-05-02T14:36:11.596Z,41.00
2019-05-02T14:38:44.307Z,42.10
2019-05-02T14:41:30.053Z,43.00
2019-05-02T14:44:00.080Z,43.20
2019-05-02T14:46:38.072Z,40.20
2019-05-02T14:49:07.750Z,44.20
2019-05-02T14:51:41.787Z,42.70
2019-05-02T14:54:14.776Z,43.50
2019-05-02T14:57:17.155Z,42.40
2019-05-02T14:59:50.250Z,45.30
2019-05-02T15:02:47.565Z,42.50
2019-05-02T15:05:19.326Z,42.60
2019-05-02T15:07:51.996Z,41.60
2019-05-02T15:10:25.079Z,43.10
2019-05-02T15:12:59.411Z,44.70
2019-05-02T15:15:38.700Z,46.10
2019-05-02T15:18:07.971Z,45.90
2019-05-02T15:20:42.487Z,48.00
2019-05-02T15:23:19.643Z,44.30
2019-05-02T15:25:52.575Z,47.40
2019-05-02T15:28:25.102Z,43.70
2019-05-02T15:31:07.936Z,42.50
2019-05-02T15:33:47.727Z,43.70
2019-05-02T15:36:22.065Z,46.00
2019-05-02T15:38:54.998Z,44.00
2019-05-02T15:41:27.893Z,44.90
2019-05-02T15:44:02.004Z,44.40
2019-05-02T15:46:34.989Z,43.60
2019-05-02T15:49:07.954Z,44.20
2019-05-02T15:51:43.744Z,45.30
2019-05-02T15:54:18.890Z,44.70
2019-05-02T15:56:52.545Z,46.80
2019-05-02T15:59:32.860Z,47.50
2019-05-02T16:02:17.553Z,46.10
2019-05-02T16:04:48.357Z,48.40
2019-05-02T16:07:22.496Z,46.30
2019-05-02T16:09:59.466Z,47.90
2019-05-02T16:12:32.071Z,47.60
2019-05-02T16:15:12.956Z,46.30
2019-05-02T16:17:42.216Z,46.60
2019-05-02T16:20:40.664Z,47.60
2019-05-02T16:23:12.812Z,46.90
2019-05-02T16:25:45.692Z,48.70
2019-05-02T16:28:18.513Z,48.30
2019-05-02T16:30:53.415Z,50.00
2019-05-02T16:33:26.233Z,49.30
2019-05-02T16:35:59.115Z,47.80
2019-05-02T16:38:34.916Z,48.80
2019-05-02T16:41:10.018Z,47.90
2019-05-02T16:43:41.957Z,48.00
2019-05-02T16:46:15.420Z,47.50
2019-05-02T16:48:48.437Z,48.40
2019-05-02T16:51:30.731Z,47.40
2019-05-02T16:54:00.577Z,46.70
2019-05-02T16:56:31.628Z,47.30
2019-05-02T16:59:04.717Z,47.70
2019-05-02T17:01:37.672Z,45.80
2019-05-02T17:04:10.502Z,44.70
2019-05-02T17:06:44.615Z,45.40
2019-05-02T17:09:24.197Z,43.80
2019-05-02T17:11:57.124Z,48.00
2019-05-02T17:14:31.751Z,48.70
2019-05-02T17:17:04.775Z,50.20
2019-05-02T17:19:37.617Z,47.00
2019-05-02T17:22:12.105Z,48.00
2019-05-02T17:24:46.122Z,49.20
2019-05-02T17:27:20.589Z,46.80
2019-05-02T17:29:59.478Z,46.60
2019-05-02T17:32:28.894Z,47.80
2019-05-02T17:35:09.238Z,46.90
2019-05-02T17:37:40.585Z,46.90
2019-05-02T17:40:12.345Z,47.20
2019-05-02T17:42:46.959Z,45.90
2019-05-02T17:45:23.748Z,46.30
2019-05-02T17:47:56.258Z,44.00
2019-05-02T17:50:49.491Z,44.10
2019-05-02T17:53:22.747Z,44.40
2019-05-02T17:55:55.864Z,41.60
2019-05-02T17:58:28.735Z,40.20
2019-05-02T18:01:03.567Z,42.30
2019-05-02T18:03:37.788Z,41.20
2019-05-02T18:06:12.619Z,43.80
2019-05-02T18:08:46.230Z,42.70
2019-05-02T18:11:22.269Z,43.10
2019-05-02T18:13:55.141Z,41.80
2019-05-02T18:16:28.007Z,42.20
2019-05-02T18:19:01.861Z,41.70
2019-05-02T18:21:35.090Z,41.60
2019-05-02T18:24:08.168Z,42.10
2019-05-02T18:26:41.140Z,42.80
2019-05-02T18:29:15.473Z,41.60
2019-05-02T18:31:48.422Z,42.60
2019-05-02T18:34:25.214Z,44.90
2019-05-02T18:36:57.482Z,43.50
2019-05-02T18:39:34.906Z,45.80
2019-05-02T18:42:05.731Z,43.60
2019-05-02T18:44:38.662Z,43.90
2019-05-02T18:47:12.551Z,43.20
2019-05-02T18:49:46.533Z,45.00
2019-05-02T18:52:19.373Z,42.80
2019-05-02T18:54:54.154Z,44.00
2019-05-02T18:57:29.506Z,45.40
2019-05-02T19:00:02.106Z,44.10
2019-05-02T19:02:36.960Z,43.50
2019-05-02T19:05:13.432Z,44.30
2019-05-02T19:07:47.300Z,45.60
2019-05-02T19:10:19.398Z,45.60
2019-05-02T19:12:56.126Z,46.40
2019-05-02T19:15:27.289Z,47.10
2019-05-02T19:18:00.115Z,46.10
2019-05-02T19:21:08.025Z,46.50
2019-05-02T19:23:42.480Z,49.80
2019-05-02T19:26:15.564Z,52.60
2019-05-02T19:29:08.526Z,54.10
2019-05-02T19:31:46.532Z,54.70
2019-05-02T19:34:22.911Z,55.30
2019-05-02T19:36:58.092Z,55.60
2019-05-02T19:39:32.303Z,56.10
2019-05-02T19:42:05.341Z,56.30
2019-05-02T19:44:38.457Z,56.10
2019-05-02T19:47:15.776Z,56.60
2019-05-02T19:49:47.262Z,56.10
2019-05-02T19:52:22.156Z,56.00
2019-05-02T19:54:55.191Z,56.90
2019-05-02T19:57:29.884Z,56.80
2019-05-02T20:00:06.480Z,56.90
2019-05-02T20:02:42.379Z,57.20
2019-05-02T20:05:16.405Z,57.00
2019-05-02T20:07:48.029Z,56.50
2019-05-02T20:10:22.701Z,58.10
2019-05-02T20:12:55.780Z,58.00
2019-05-02T20:15:32.771Z,57.90
2019-05-02T20:18:05.827Z,58.10
2019-05-02T20:21:23.218Z,58.90
2019-05-02T20:23:51.004Z,59.40
2019-05-02T20:26:24.034Z,59.30
2019-05-02T20:28:56.930Z,59.10
2019-05-02T20:31:29.773Z,59.10
2019-05-02T20:34:03.170Z,59.20
2019-05-02T20:36:36.163Z,59.60
2019-05-02T20:39:09.418Z,59.80
2019-05-02T20:41:42.467Z,59.70
2019-05-02T20:44:15.387Z,59.80
2019-05-02T20:46:48.302Z,59.90
2019-05-02T20:49:21.182Z,60.50
2019-05-02T20:51:54.070Z,61.20
2019-05-02T20:54:26.971Z,61.40
2019-05-02T20:56:59.861Z,61.40
2019-05-02T20:59:32.732Z,61.00
2019-05-02T21:02:05.768Z,61.00
2019-05-02T21:04:38.745Z,61.90
2019-05-02T21:07:19.232Z,61.40
2019-05-02T21:09:55.823Z,61.00
2019-05-02T21:12:28.803Z,61.30
2019-05-02T21:15:01.841Z,62.30
2019-05-02T21:17:34.727Z,63.10
2019-05-02T21:20:07.808Z,63.90
2019-05-02T21:22:42.225Z,64.50
2019-05-02T21:25:15.394Z,64.70
2019-05-02T21:27:48.212Z,64.90
2019-05-02T21:30:27.249Z,65.40
2019-05-02T21:33:00.074Z,65.90
2019-05-02T21:35:33.132Z,66.00
2019-05-02T21:38:06.024Z,66.30
2019-05-02T21:40:39.117Z,66.30
2019-05-02T21:43:12.888Z,66.50
2019-05-02T21:45:45.948Z,66.50
2019-05-02T21:48:19.290Z,66.90
2019-05-02T21:50:59.046Z,66.30
2019-05-02T21:54:02.868Z,66.40
2019-05-02T21:56:43.053Z,66.60
2019-05-02T21:59:15.943Z,66.60
2019-05-02T22:01:51.897Z,66.30
2019-05-02T22:04:26.091Z,66.30
2019-05-02T22:06:58.920Z,66.60
2019-05-02T22:09:32.358Z,66.50
2019-05-02T22:12:05.576Z,66.30
2019-05-02T22:14:38.562Z,66.10
2019-05-02T22:17:12.725Z,67.40
2019-05-02T22:19:45.778Z,66.60
2019-05-02T22:22:18.728Z,66.80
2019-05-02T22:24:52.874Z,66.10
2019-05-02T22:27:25.831Z,65.50
2019-05-02T22:29:58.675Z,65.90
2019-05-02T22:32:32.123Z,66.00
2019-05-02T22:35:05.530Z,65.90
2019-05-02T22:37:40.486Z,66.40
2019-05-02T22:40:14.844Z,67.00
2019-05-02T22:42:47.751Z,66.20
2019-05-02T22:45:21.769Z,67.70
2019-05-02T22:47:54.664Z,68.20
2019-05-02T22:50:27.490Z,68.40
2019-05-02T22:53:00.391Z,68.10
2019-05-02T22:55:33.307Z,69.10
2019-05-02T22:58:06.241Z,68.40
2019-05-02T23:00:39.113Z,69.00
2019-05-02T23:03:12.541Z,69.70
2019-05-02T23:05:45.568Z,69.40
2019-05-02T23:08:18.479Z,69.50
2019-05-02T23:10:51.943Z,69.70
2019-05-02T23:13:24.853Z,70.10
2019-05-02T23:15:57.689Z,70.70
2019-05-02T23:18:31.936Z,71.60
2019-05-02T23:21:05.037Z,71.00
2019-05-02T23:23:37.886Z,70.10
2019-05-02T23:26:39.236Z,68.90
2019-05-02T23:29:13.308Z,68.80
2019-05-02T23:31:46.129Z,68.50
2019-05-02T23:34:19.050Z,68.20
2019-05-02T23:36:52.362Z,67.80
2019-05-02T23:39:25.252Z,67.80
2019-05-02T23:41:58.063Z,67.80
2019-05-02T23:44:30.980Z,68.20
2019-05-02T23:47:03.824Z,67.70
2019-05-02T23:49:36.761Z,68.40
2019-05-02T23:52:11.647Z,68.80
2019-05-02T23:54:52.063Z,69.30
2019-05-02T23:57:19.189Z,69.40
2019-05-02T23:59:52.037Z,69.10
